createdAt,value
2022-10-05T00:00:36.253Z,0.40
2022-10-05T00:03:27.264Z,0.50
2022-10-05T00:06:11.967Z,0.47
2022-10-05T00:08:55.451Z,0.50
2022-10-05T00:11:42.131Z,0.50
2022-10-05T00:17:50.365Z,0.60
2022-10-05T00:23:24.144Z,0.40
2022-10-05T00:26:13.215Z,0.50
2022-10-05T00:28:56.569Z,0.50
2022-10-05T00:31:52.682Z,0.40
2022-10-05T00:34:32.287Z,0.40
2022-10-05T00:37:35.880Z,0.50
2022-10-05T00:40:38.920Z,0.60
2022-10-05T00:43:39.580Z,0.73
2022-10-05T00:46:27.350Z,0.90
2022-10-05T00:49:23.627Z,0.90
2022-10-05T00:52:11.293Z,0.90
2022-10-05T00:55:06.256Z,0.93
2022-10-05T00:58:12.991Z,0.80
2022-10-05T01:01:20.456Z,0.70
2022-10-05T01:04:01.878Z,0.75
2022-10-05T01:06:49.045Z,0.60
2022-10-05T01:09:45.338Z,1.50
2022-10-05T01:12:48.667Z,0.60
2022-10-05T01:15:46.992Z,0.55
2022-10-05T01:18:35.488Z,0.50
2022-10-05T01:21:29.300Z,0.50
2022-10-05T01:24:49.961Z,0.50
2022-10-05T01:28:07.579Z,0.52
2022-10-05T01:30:50.451Z,0.52
2022-10-05T01:33:38.233Z,0.68
2022-10-05T01:36:40.260Z,0.45
2022-10-05T01:39:23.330Z,0.60
2022-10-05T01:42:11.004Z,0.65
2022-10-05T01:45:06.187Z,0.50
2022-10-05T01:51:12.513Z,0.60
2022-10-05T01:54:09.954Z,0.60
2022-10-05T02:00:23.267Z,0.60
2022-10-05T02:03:34.318Z,0.50
2022-10-05T02:06:17.620Z,0.50
2022-10-05T02:09:01.419Z,0.50
2022-10-05T02:11:43.123Z,0.50
2022-10-05T02:14:32.363Z,0.60
2022-10-05T02:20:24.273Z,0.70
2022-10-05T02:23:07.344Z,0.57
2022-10-05T02:29:13.033Z,0.40
2022-10-05T02:34:51.226Z,0.50
2022-10-05T02:38:17.655Z,0.52
2022-10-05T02:41:11.166Z,0.60
2022-10-05T02:44:12.365Z,0.40
2022-10-05T02:47:11.113Z,0.60
2022-10-05T02:50:00.810Z,0.70
2022-10-05T02:53:00.764Z,0.60
2022-10-05T02:55:56.751Z,1.08
2022-10-05T02:59:22.581Z,0.60
2022-10-05T03:02:21.865Z,0.82
2022-10-05T03:05:05.006Z,0.50
2022-10-05T03:08:00.920Z,0.60
2022-10-05T03:16:58.609Z,0.60
2022-10-05T03:20:04.718Z,0.50
2022-10-05T03:22:57.263Z,0.73
2022-10-05T03:25:57.007Z,0.80
2022-10-05T03:31:37.432Z,0.70
2022-10-05T03:34:27.440Z,0.70
2022-10-05T03:37:15.614Z,0.88
2022-10-05T03:40:28.011Z,0.60
2022-10-05T03:43:41.894Z,0.70
2022-10-05T03:46:39.038Z,0.57
2022-10-05T03:49:39.019Z,0.68
2022-10-05T03:55:03.791Z,0.50
2022-10-05T03:57:48.406Z,0.80
2022-10-05T04:00:32.826Z,0.90
2022-10-05T04:03:37.030Z,1.30
2022-10-05T04:06:20.277Z,0.80
2022-10-05T04:09:27.474Z,0.80
2022-10-05T04:12:23.037Z,0.70
2022-10-05T04:15:07.085Z,0.80
2022-10-05T04:18:10.377Z,0.93
2022-10-05T04:21:03.202Z,0.80
2022-10-05T04:24:09.722Z,0.70
2022-10-05T04:27:00.498Z,1.35
2022-10-05T04:29:44.603Z,1.27
2022-10-05T04:32:45.226Z,4.25
2022-10-05T04:36:13.302Z,5.28
2022-10-05T04:39:14.496Z,4.43
2022-10-05T04:42:08.852Z,1.00
2022-10-05T04:45:26.835Z,1.20
2022-10-05T04:48:43.870Z,0.50
2022-10-05T04:51:41.247Z,1.00
2022-10-05T04:54:53.435Z,0.73
2022-10-05T04:57:42.335Z,0.73
2022-10-05T05:01:08.048Z,0.50
2022-10-05T05:04:42.452Z,0.73
2022-10-05T05:11:20.089Z,1.00
2022-10-05T05:15:06.469Z,0.70
2022-10-05T05:21:48.960Z,1.45
2022-10-05T05:27:54.822Z,1.20
2022-10-05T05:30:52.939Z,9.38
2022-10-05T05:33:56.952Z,1.88
2022-10-05T05:37:04.166Z,3.53
2022-10-05T05:39:43.851Z,2.22
2022-10-05T05:45:27.820Z,0.70
2022-10-05T05:51:45.966Z,0.90
2022-10-05T05:54:41.747Z,0.85
2022-10-05T05:57:28.349Z,1.08
2022-10-05T06:00:13.732Z,1.05
2022-10-05T06:03:18.631Z,0.70
2022-10-05T06:06:02.360Z,0.77
2022-10-05T06:08:49.756Z,0.70
2022-10-05T06:11:35.975Z,1.25
2022-10-05T06:14:21.898Z,3.25
2022-10-05T06:17:07.228Z,6.53
2022-10-05T06:19:59.925Z,2.15
2022-10-05T06:22:57.350Z,1.10
2022-10-05T06:25:57.050Z,2.00
2022-10-05T06:31:45.238Z,1.05
2022-10-05T06:34:49.788Z,0.98
2022-10-05T06:37:56.401Z,0.80
2022-10-05T06:41:15.569Z,0.98
2022-10-05T06:44:18.344Z,0.90
2022-10-05T06:47:24.333Z,1.10
2022-10-05T06:50:08.537Z,0.77
2022-10-05T06:53:05.496Z,0.93
2022-10-05T06:56:09.316Z,0.90
2022-10-05T06:58:58.097Z,1.25
2022-10-05T07:01:47.832Z,0.57
2022-10-05T07:04:51.390Z,1.15
2022-10-05T07:07:38.565Z,0.70
2022-10-05T07:10:44.754Z,1.00
2022-10-05T07:17:56.663Z,1.13
2022-10-05T07:20:45.635Z,1.73
2022-10-05T07:23:55.684Z,5.15
2022-10-05T07:26:55.562Z,3.10
2022-10-05T07:29:55.909Z,1.90
2022-10-05T07:38:59.465Z,10.43
2022-10-05T07:42:22.280Z,60.42
2022-10-05T07:45:05.459Z,113.18
2022-10-05T07:47:58.912Z,68.90
2022-10-05T07:51:13.552Z,67.78
2022-10-05T07:54:08.401Z,58.58
2022-10-05T07:57:01.901Z,23.73
2022-10-05T08:02:47.552Z,6.53
2022-10-05T08:05:44.127Z,2.00
2022-10-05T08:08:46.043Z,5.45
2022-10-05T08:11:31.763Z,4.07
2022-10-05T08:14:16.668Z,5.47
2022-10-05T08:16:57.327Z,6.93
2022-10-05T08:19:46.568Z,7.22
2022-10-05T08:22:32.945Z,2.63
2022-10-05T08:29:25.859Z,14.77
2022-10-05T08:32:11.849Z,7.38
2022-10-05T08:34:57.769Z,3.95
2022-10-05T08:37:44.530Z,3.75
2022-10-05T08:40:57.753Z,6.20
2022-10-05T08:44:01.495Z,6.47
2022-10-05T08:47:19.390Z,2.78
2022-10-05T08:50:41.348Z,1.67
2022-10-05T08:53:50.072Z,1.20
2022-10-05T08:56:53.549Z,1.88
2022-10-05T08:59:57.831Z,2.70
2022-10-05T09:02:51.824Z,3.13
2022-10-05T09:06:14.309Z,3.80
2022-10-05T09:09:41.590Z,3.60
2022-10-05T09:13:00.389Z,30.83
2022-10-05T09:16:21.333Z,13.07
2022-10-05T09:19:30.915Z,4.00
2022-10-05T09:22:22.914Z,6.53
2022-10-05T09:25:18.903Z,6.03
2022-10-05T09:28:14.438Z,3.40
2022-10-05T09:31:09.645Z,3.40
2022-10-05T09:34:27.547Z,6.40
2022-10-05T09:37:46.837Z,10.15
2022-10-05T09:40:59.288Z,4.43
2022-10-05T09:44:28.549Z,3.15
2022-10-05T09:47:41.225Z,1.88
2022-10-05T09:55:19.575Z,2.30
2022-10-05T09:58:35.933Z,2.80
2022-10-05T10:01:39.074Z,2.50
2022-10-05T10:04:49.727Z,2.45
2022-10-05T10:08:02.190Z,2.10
2022-10-05T10:11:05.800Z,2.30
2022-10-05T10:14:19.526Z,1.85
2022-10-05T10:17:19.877Z,2.10
2022-10-05T10:20:38.597Z,1.75
2022-10-05T10:27:29.578Z,1.90
2022-10-05T10:31:11.171Z,1.83
2022-10-05T10:34:54.499Z,2.53
2022-10-05T10:38:06.784Z,2.22
2022-10-05T10:41:15.430Z,2.40
2022-10-05T10:44:29.672Z,2.22
2022-10-05T10:53:21.439Z,2.20
2022-10-05T10:56:30.600Z,2.25
2022-10-05T10:59:52.063Z,1.98
2022-10-05T11:03:11.142Z,2.25
2022-10-05T11:06:17.183Z,2.25
2022-10-05T11:09:19.480Z,3.22
2022-10-05T11:15:56.308Z,3.40
2022-10-05T11:19:01.786Z,3.28
2022-10-05T11:22:02.525Z,3.78
2022-10-05T11:25:25.571Z,7.60
2022-10-05T11:28:45.003Z,13.20
2022-10-05T11:31:57.012Z,11.10
2022-10-05T11:35:18.969Z,19.27
2022-10-05T11:38:21.265Z,5.07
2022-10-05T11:41:43.246Z,2.72
2022-10-05T11:44:55.952Z,2.55
2022-10-05T11:48:14.053Z,2.30
2022-10-05T11:51:13.653Z,2.88
2022-10-05T11:54:05.144Z,3.20
2022-10-05T11:56:44.665Z,2.13
2022-10-05T11:59:53.431Z,2.53
2022-10-05T12:03:17.858Z,18.00
2022-10-05T12:06:11.505Z,17.67
2022-10-05T12:09:04.805Z,4.75
2022-10-05T12:12:23.089Z,3.60
2022-10-05T12:15:14.569Z,3.47
2022-10-05T12:18:06.186Z,2.75
2022-10-05T12:20:55.957Z,2.67
2022-10-05T12:24:00.294Z,2.80
2022-10-05T12:27:06.731Z,7.80
2022-10-05T12:30:09.959Z,3.70
2022-10-05T12:33:11.526Z,3.47
2022-10-05T12:36:07.177Z,4.25
2022-10-05T12:39:04.032Z,4.80
2022-10-05T12:41:57.809Z,7.72
2022-10-05T12:44:56.952Z,12.65
2022-10-05T12:47:54.422Z,12.68
2022-10-05T12:51:21.835Z,13.00
2022-10-05T12:54:17.006Z,10.27
2022-10-05T12:57:12.730Z,9.20
2022-10-05T13:00:00.197Z,8.40
2022-10-05T13:09:25.129Z,5.13
2022-10-05T13:12:16.010Z,4.78
2022-10-05T13:15:16.501Z,4.90
2022-10-05T13:18:10.352Z,4.97
2022-10-05T13:21:01.921Z,4.90
2022-10-05T13:24:10.225Z,5.45
2022-10-05T13:26:55.849Z,7.45
2022-10-05T13:29:51.057Z,6.47
2022-10-05T13:32:43.467Z,6.38
2022-10-05T13:35:49.081Z,4.68
2022-10-05T13:38:37.072Z,3.42
2022-10-05T13:41:28.204Z,2.80
2022-10-05T13:44:46.762Z,2.70
2022-10-05T13:48:57.820Z,2.50
2022-10-05T13:51:10.328Z,3.10
2022-10-05T13:54:03.477Z,2.88
2022-10-05T13:56:59.239Z,3.67
2022-10-05T14:00:15.136Z,3.45
2022-10-05T14:03:18.322Z,2.53
2022-10-05T14:06:10.166Z,2.33
2022-10-05T14:11:55.296Z,2.38
2022-10-05T14:14:47.432Z,1.85
2022-10-05T14:17:46.686Z,2.03
2022-10-05T14:20:37.556Z,1.67
2022-10-05T14:23:32.832Z,1.40
2022-10-05T14:26:27.957Z,1.40
2022-10-05T14:29:24.236Z,1.70
2022-10-05T14:32:31.775Z,1.20
2022-10-05T14:35:37.858Z,2.10
2022-10-05T14:38:28.725Z,1.70
2022-10-05T14:41:22.409Z,1.52
2022-10-05T14:44:10.846Z,2.30
2022-10-05T14:47:00.292Z,2.15
2022-10-05T14:49:48.101Z,2.08
2022-10-05T14:53:03.371Z,2.08
2022-10-05T14:56:13.618Z,2.83
2022-10-05T15:02:50.023Z,1.58
2022-10-05T15:05:31.409Z,1.38
2022-10-05T15:08:21.498Z,1.63
2022-10-05T15:11:12.800Z,1.40
2022-10-05T15:14:00.229Z,1.50
2022-10-05T15:16:45.972Z,1.40
2022-10-05T15:19:36.921Z,1.20
2022-10-05T15:22:33.990Z,1.42
2022-10-05T15:25:36.561Z,1.38
2022-10-05T15:28:39.048Z,1.40
2022-10-05T15:31:40.405Z,1.40
2022-10-05T15:34:36.872Z,1.42
2022-10-05T15:37:21.711Z,1.40
2022-10-05T15:40:07.493Z,1.60
2022-10-05T15:42:54.109Z,1.70
2022-10-05T15:45:53.061Z,1.50
2022-10-05T15:51:37.409Z,1.60
2022-10-05T16:00:24.852Z,2.78
2022-10-05T16:03:28.165Z,1.60
2022-10-05T16:06:29.951Z,2.05
2022-10-05T16:09:18.383Z,1.85
2022-10-05T16:12:04.500Z,2.10
2022-10-05T16:15:07.586Z,2.15
2022-10-05T16:18:12.959Z,1.90
2022-10-05T16:21:09.663Z,1.35
2022-10-05T16:24:32.038Z,1.73
2022-10-05T16:27:18.913Z,1.88
2022-10-05T16:30:19.557Z,1.90
2022-10-05T16:33:16.440Z,1.92
2022-10-05T16:36:05.440Z,3.50
2022-10-05T16:38:50.876Z,3.13
2022-10-05T16:41:41.959Z,3.08
2022-10-05T16:44:32.795Z,2.40
2022-10-05T16:47:37.599Z,2.63
2022-10-05T16:50:48.201Z,2.75
2022-10-05T16:53:31.824Z,2.88
2022-10-05T16:56:16.079Z,1.98
2022-10-05T16:59:05.812Z,2.00
2022-10-05T17:01:59.086Z,1.83
2022-10-05T17:04:51.957Z,2.00
2022-10-05T17:07:59.161Z,1.90
2022-10-05T17:11:01.966Z,1.60
2022-10-05T17:14:10.931Z,1.60
2022-10-05T17:17:03.332Z,1.48
2022-10-05T17:19:58.798Z,1.90
2022-10-05T17:22:53.643Z,2.30
2022-10-05T17:25:47.165Z,1.98
2022-10-05T17:28:51.782Z,2.08
2022-10-05T17:31:29.594Z,1.70
2022-10-05T17:34:36.025Z,2.10
2022-10-05T17:37:45.558Z,2.60
2022-10-05T17:40:54.244Z,2.60
2022-10-05T17:43:40.032Z,1.88
2022-10-05T17:46:31.168Z,1.92
2022-10-05T17:49:25.405Z,1.90
2022-10-05T17:52:28.313Z,2.00
2022-10-05T17:55:44.938Z,1.95
2022-10-05T18:02:36.590Z,1.50
2022-10-05T18:05:31.422Z,1.80
2022-10-05T18:08:38.696Z,1.48
2022-10-05T18:11:49.775Z,1.63
2022-10-05T18:14:34.560Z,1.63
2022-10-05T18:17:42.031Z,2.03
2022-10-05T18:20:55.213Z,2.00
2022-10-05T18:23:47.379Z,2.45
2022-10-05T18:26:53.573Z,2.50
2022-10-05T18:30:04.601Z,2.05
2022-10-05T18:33:29.186Z,2.63
2022-10-05T18:36:26.807Z,1.90
2022-10-05T18:39:21.334Z,0.98
2022-10-05T18:42:20.175Z,0.98
2022-10-05T18:45:02.884Z,1.55
2022-10-05T18:48:05.447Z,1.00
2022-10-05T18:51:10.530Z,1.42
2022-10-05T18:54:13.610Z,1.15
2022-10-05T18:57:11.201Z,1.05
2022-10-05T19:00:01.288Z,1.23
2022-10-05T19:02:43.909Z,1.52
2022-10-05T19:05:47.541Z,1.00
2022-10-05T19:08:42.322Z,1.17
2022-10-05T19:11:29.216Z,1.15
2022-10-05T19:14:31.222Z,1.08
2022-10-05T19:17:34.292Z,1.30
2022-10-05T19:20:44.879Z,1.40
2022-10-05T19:24:07.055Z,1.20
2022-10-05T19:27:00.009Z,0.90
2022-10-05T19:30:07.438Z,0.90
2022-10-05T19:33:10.550Z,1.10
2022-10-05T19:36:12.401Z,0.90
2022-10-05T19:39:17.415Z,0.93
2022-10-05T19:45:19.801Z,0.95
2022-10-05T19:48:07.764Z,1.10
2022-10-05T19:51:00.656Z,0.95
2022-10-05T19:53:47.126Z,0.70
2022-10-05T19:56:48.806Z,0.85
2022-10-05T19:59:26.937Z,0.90
2022-10-05T20:02:07.394Z,0.80
2022-10-05T20:04:49.696Z,0.98
2022-10-05T20:10:34.336Z,1.00
2022-10-05T20:13:36.846Z,1.00
2022-10-05T20:16:52.373Z,0.85
2022-10-05T20:19:58.323Z,1.25
2022-10-05T20:22:54.378Z,1.05
2022-10-05T20:25:51.873Z,1.60
2022-10-05T20:28:52.302Z,1.60
2022-10-05T20:31:28.904Z,1.67
2022-10-05T20:34:19.946Z,1.70
2022-10-05T20:37:02.940Z,1.00
2022-10-05T20:39:47.780Z,1.15
2022-10-05T20:42:24.649Z,1.00
2022-10-05T20:45:28.357Z,1.20
2022-10-05T20:48:05.874Z,1.10
2022-10-05T20:50:52.223Z,1.70
2022-10-05T20:53:35.375Z,1.10
2022-10-05T20:56:26.550Z,1.23
2022-10-05T20:59:07.802Z,0.90
2022-10-05T21:01:51.655Z,0.90
2022-10-05T21:04:41.294Z,0.90
2022-10-05T21:07:31.343Z,1.30
2022-10-05T21:10:13.754Z,1.08
2022-10-05T21:12:56.316Z,1.02
2022-10-05T21:15:35.699Z,1.80
2022-10-05T21:18:23.530Z,1.10
2022-10-05T21:21:02.179Z,0.90
2022-10-05T21:26:31.917Z,0.95
2022-10-05T21:29:12.481Z,1.10
2022-10-05T21:37:58.156Z,1.30
2022-10-05T21:41:01.941Z,1.00
2022-10-05T21:43:43.173Z,5.47
2022-10-05T21:46:21.754Z,8.50
2022-10-05T21:49:03.578Z,5.10
2022-10-05T21:51:57.401Z,2.58
2022-10-05T21:54:33.940Z,9.25
2022-10-05T22:00:08.510Z,10.63
2022-10-05T22:03:07.665Z,0.70
2022-10-05T22:05:52.697Z,0.70
2022-10-05T22:08:33.197Z,1.60
2022-10-05T22:14:08.077Z,2.60
2022-10-05T22:16:51.436Z,0.80
2022-10-05T22:28:46.937Z,0.80
2022-10-05T22:31:32.455Z,0.60
2022-10-05T22:34:10.144Z,1.17
2022-10-05T22:36:53.724Z,1.65
2022-10-05T22:39:33.079Z,0.80
2022-10-05T22:42:47.410Z,0.73
2022-10-05T22:45:29.177Z,0.93
2022-10-05T22:48:21.995Z,0.75
2022-10-05T22:51:10.779Z,0.70
2022-10-05T22:54:19.884Z,0.70
2022-10-05T22:57:06.302Z,0.70
2022-10-05T22:59:51.643Z,0.68
2022-10-05T23:02:53.754Z,0.93
2022-10-05T23:05:32.209Z,0.85
2022-10-05T23:13:51.791Z,1.17
2022-10-05T23:16:38.170Z,0.80
2022-10-05T23:19:28.687Z,0.73
2022-10-05T23:25:22.051Z,0.70
2022-10-05T23:28:24.170Z,1.15
2022-10-05T23:31:11.562Z,3.50
2022-10-05T23:33:57.450Z,0.80
2022-10-05T23:36:51.829Z,1.20
2022-10-05T23:39:36.165Z,0.80
2022-10-05T23:42:19.657Z,1.85
2022-10-05T23:45:13.902Z,1.17
2022-10-05T23:47:52.282Z,1.33
2022-10-05T23:53:27.151Z,0.90
